sensor_id;sensor_type;location;lat;lon;timestamp;pressure;altitude;pressure_sealevel;temperature;humidity
63954;BME280;50128;52.094;5.232;2023-04-23T00:01:07;97616.0;;;-9.51;100.0
63954;BME280;50128;52.094;5.232;2023-04-23T00:02:44;97615.0;;;-9.39;100.0
63954;BME280;50128;52.094;5.232;2023-04-23T00:05:59;97608.0;;;-9.36;100.0
63954;BME280;50128;52.094;5.232;2023-04-23T00:07:40;97621.0;;;-9.39;100.0
63954;BME280;50128;52.094;5.232;2023-04-23T00:09:18;97609.0;;;-9.4;100.0
63954;BME280;50128;52.094;5.232;2023-04-23T00:12:34;97613.0;;;-9.37;100.0
63954;BME280;50128;52.094;5.232;2023-04-23T00:14:11;97607.0;;;-9.32;100.0
63954;BME280;50128;52.094;5.232;2023-04-23T00:15:49;97601.0;;;-9.49;100.0
63954;BME280;50128;52.094;5.232;2023-04-23T00:17:25;97597.0;;;-9.31;100.0
63954;BME280;50128;52.094;5.232;2023-04-23T00:20:38;97590.0;;;-9.42;100.0
63954;BME280;50128;52.094;5.232;2023-04-23T00:22:15;97589.0;;;-9.41;100.0
63954;BME280;50128;52.094;5.232;2023-04-23T00:23:52;97585.0;;;-9.41;100.0
63954;BME280;50128;52.094;5.232;2023-04-23T00:27:04;97604.0;;;-9.24;100.0
63954;BME280;50128;52.094;5.232;2023-04-23T00:28:41;97603.0;;;-9.41;100.0
63954;BME280;50128;52.094;5.232;2023-04-23T00:30:17;97597.0;;;-9.51;100.0
63954;BME280;50128;52.094;5.232;2023-04-23T00:31:53;97597.0;;;-9.52;100.0
63954;BME280;50128;52.094;5.232;2023-04-23T00:35:07;97578.0;;;-9.61;100.0
63954;BME280;50128;52.094;5.232;2023-04-23T00:36:44;97577.0;;;-9.62;100.0
63954;BME280;50128;52.094;5.232;2023-04-23T00:38:20;97574.0;;;-9.64;100.0
63954;BME280;50128;52.094;5.232;2023-04-23T00:41:32;97580.0;;;-9.41;100.0
63954;BME280;50128;52.094;5.232;2023-04-23T00:43:09;97563.0;;;-9.42;100.0
63954;BME280;50128;52.094;5.232;2023-04-23T00:44:46;97571.0;;;-9.5;100.0
63954;BME280;50128;52.094;5.232;2023-04-23T00:48:01;97577.0;;;-9.52;100.0
63954;BME280;50128;52.094;5.232;2023-04-23T00:49:38;97563.0;;;-9.63;100.0
63954;BME280;50128;52.094;5.232;2023-04-23T00:51:15;97575.0;;;-9.64;100.0
63954;BME280;50128;52.094;5.232;2023-04-23T00:52:52;97570.0;;;-9.49;100.0
63954;BME280;50128;52.094;5.232;2023-04-23T00:56:05;97572.0;;;-9.55;100.0
63954;BME280;50128;52.094;5.232;2023-04-23T00:57:42;97560.0;;;-9.52;100.0
63954;BME280;50128;52.094;5.232;2023-04-23T00:59:20;97563.0;;;-9.4;100.0
63954;BME280;50128;52.094;5.232;2023-04-23T01:02:35;97557.0;;;-9.46;100.0
63954;BME280;50128;52.094;5.232;2023-04-23T01:04:13;97555.0;;;-9.42;100.0
63954;BME280;50128;52.094;5.232;2023-04-23T01:05:51;97563.0;;;-9.33;100.0
63954;BME280;50128;52.094;5.232;2023-04-23T01:07:28;97556.0;;;-9.3;100.0
63954;BME280;50128;52.094;5.232;2023-04-23T01:10:43;97546.0;;;-9.33;100.0
63954;BME280;50128;52.094;5.232;2023-04-23T01:12:21;97550.0;;;-9.22;100.0
63954;BME280;50128;52.094;5.232;2023-04-23T01:13:58;97540.0;;;-9.21;100.0
63954;BME280;50128;52.094;5.232;2023-04-23T01:17:10;97548.0;;;-9.13;100.0
63954;BME280;50128;52.094;5.232;2023-04-23T01:18:47;97545.0;;;-9.09;100.0
63954;BME280;50128;52.094;5.232;2023-04-23T01:20:23;97544.0;;;-9.12;100.0
63954;BME280;50128;52.094;5.232;2023-04-23T01:23:38;97536.0;;;-9.27;100.0
63954;BME280;50128;52.094;5.232;2023-04-23T01:25:14;97531.0;;;-9.2;100.0
63954;BME280;50128;52.094;5.232;2023-04-23T01:26:51;97527.0;;;-9.2;100.0
63954;BME280;50128;52.094;5.232;2023-04-23T01:28:28;97534.0;;;-9.21;100.0
63954;BME280;50128;52.094;5.232;2023-04-23T01:31:43;97528.0;;;-9.17;100.0
63954;BME280;50128;52.094;5.232;2023-04-23T01:33:19;97538.0;;;-8.98;100.0
63954;BME280;50128;52.094;5.232;2023-04-23T01:34:55;97528.0;;;-8.9;100.0
63954;BME280;50128;52.094;5.232;2023-04-23T01:38:13;97535.0;;;-9.12;100.0
63954;BME280;50128;52.094;5.232;2023-04-23T01:39:49;97529.0;;;-8.99;100.0
63954;BME280;50128;52.094;5.232;2023-04-23T01:41:26;97537.0;;;-8.95;100.0
63954;BME280;50128;52.094;5.232;2023-04-23T01:43:03;97531.0;;;-9.0;100.0
63954;BME280;50128;52.094;5.232;2023-04-23T01:46:19;97536.0;;;-9.07;100.0
63954;BME280;50128;52.094;5.232;2023-04-23T01:47:56;97519.0;;;-8.99;100.0
63954;BME280;50128;52.094;5.232;2023-04-23T01:49:33;97526.0;;;-8.89;100.0
63954;BME280;50128;52.094;5.232;2023-04-23T01:52:46;97519.0;;;-8.99;100.0
63954;BME280;50128;52.094;5.232;2023-04-23T01:54:22;97524.0;;;-8.86;100.0
63954;BME280;50128;52.094;5.232;2023-04-23T01:55:59;97536.0;;;-8.66;100.0
63954;BME280;50128;52.094;5.232;2023-04-23T01:59:13;97525.0;;;-8.73;100.0
63954;BME280;50128;52.094;5.232;2023-04-23T02:00:49;97522.0;;;-8.82;100.0
63954;BME280;50128;52.094;5.232;2023-04-23T02:02:26;97522.0;;;-8.76;100.0
63954;BME280;50128;52.094;5.232;2023-04-23T02:04:03;97530.0;;;-8.56;100.0
63954;BME280;50128;52.094;5.232;2023-04-23T02:07:18;97532.0;;;-8.62;100.0
63954;BME280;50128;52.094;5.232;2023-04-23T02:08:54;97514.0;;;-8.68;100.0
63954;BME280;50128;52.094;5.232;2023-04-23T02:10:30;97495.0;;;-8.91;100.0
63954;BME280;50128;52.094;5.232;2023-04-23T02:13:42;97499.0;;;-8.76;100.0
63954;BME280;50128;52.094;5.232;2023-04-23T02:15:18;97508.0;;;-8.75;100.0
63954;BME280;50128;52.094;5.232;2023-04-23T02:16:55;97504.0;;;-8.72;100.0
63954;BME280;50128;52.094;5.232;2023-04-23T02:20:08;97483.0;;;-8.73;100.0
63954;BME280;50128;52.094;5.232;2023-04-23T02:21:45;97486.0;;;-8.68;100.0
63954;BME280;50128;52.094;5.232;2023-04-23T02:23:21;97487.0;;;-8.74;100.0
63954;BME280;50128;52.094;5.232;2023-04-23T02:24:57;97485.0;;;-8.58;100.0
63954;BME280;50128;52.094;5.232;2023-04-23T02:28:10;97500.0;;;-8.67;100.0
63954;BME280;50128;52.094;5.232;2023-04-23T02:29:47;97492.0;;;-8.56;100.0
63954;BME280;50128;52.094;5.232;2023-04-23T02:31:24;97490.0;;;-8.6;100.0
63954;BME280;50128;52.094;5.232;2023-04-23T02:34:37;97479.0;;;-8.7;100.0
63954;BME280;50128;52.094;5.232;2023-04-23T02:36:13;97482.0;;;-8.65;100.0
63954;BME280;50128;52.094;5.232;2023-04-23T02:37:50;97491.0;;;-8.58;100.0
63954;BME280;50128;52.094;5.232;2023-04-23T02:41:04;97486.0;;;-8.63;100.0
63954;BME280;50128;52.094;5.232;2023-04-23T02:42:40;97474.0;;;-8.69;100.0
63954;BME280;50128;52.094;5.232;2023-04-23T02:44:16;97485.0;;;-8.6;100.0
63954;BME280;50128;52.094;5.232;2023-04-23T02:45:53;97490.0;;;-8.5;100.0
63954;BME280;50128;52.094;5.232;2023-04-23T02:49:06;97474.0;;;-8.7;100.0
63954;BME280;50128;52.094;5.232;2023-04-23T02:50:43;97483.0;;;-8.67;100.0
63954;BME280;50128;52.094;5.232;2023-04-23T02:52:19;97498.0;;;-8.54;100.0
63954;BME280;50128;52.094;5.232;2023-04-23T02:55:33;97491.0;;;-8.61;100.0
63954;BME280;50128;52.094;5.232;2023-04-23T02:57:09;97475.0;;;-8.74;100.0
63954;BME280;50128;52.094;5.232;2023-04-23T02:58:45;97488.0;;;-8.6;100.0
63954;BME280;50128;52.094;5.232;2023-04-23T03:02:00;97493.0;;;-8.44;100.0
63954;BME280;50128;52.094;5.232;2023-04-23T03:03:36;97505.0;;;-8.44;100.0
63954;BME280;50128;52.094;5.232;2023-04-23T03:05:13;97493.0;;;-8.57;100.0
63954;BME280;50128;52.094;5.232;2023-04-23T03:06:49;97494.0;;;-8.69;100.0
63954;BME280;50128;52.094;5.232;2023-04-23T03:10:03;97501.0;;;-8.64;100.0
63954;BME280;50128;52.094;5.232;2023-04-23T03:11:39;97500.0;;;-8.59;100.0
63954;BME280;50128;52.094;5.232;2023-04-23T03:13:15;97502.0;;;-8.55;100.0
63954;BME280;50128;52.094;5.232;2023-04-23T03:16:28;97500.0;;;-8.56;100.0
63954;BME280;50128;52.094;5.232;2023-04-23T03:48:32;97496.0;;;-8.8;100.0
63954;BME280;50128;52.094;5.232;2023-04-23T03:51:46;97499.0;;;-8.68;100.0
63954;BME280;50128;52.094;5.232;2023-04-23T03:53:23;97487.0;;;-8.86;100.0
63954;BME280;50128;52.094;5.232;2023-04-23T03:54:59;97496.0;;;-8.71;100.0
63954;BME280;50128;52.094;5.232;2023-04-23T03:58:12;97487.0;;;-8.79;100.0
63954;BME280;50128;52.094;5.232;2023-04-23T03:59:48;97480.0;;;-8.97;100.0
63954;BME280;50128;52.094;5.232;2023-04-23T04:01:24;97482.0;;;-8.82;100.0
63954;BME280;50128;52.094;5.232;2023-04-23T04:04:37;97487.0;;;-8.81;100.0
63954;BME280;50128;52.094;5.232;2023-04-23T04:06:13;97485.0;;;-8.9;100.0
63954;BME280;50128;52.094;5.232;2023-04-23T04:07:50;97480.0;;;-8.86;100.0
63954;BME280;50128;52.094;5.232;2023-04-23T04:09:26;97478.0;;;-8.76;100.0
63954;BME280;50128;52.094;5.232;2023-04-23T04:12:39;97471.0;;;-8.69;100.0
63954;BME280;50128;52.094;5.232;2023-04-23T04:14:15;97465.0;;;-8.75;100.0
63954;BME280;50128;52.094;5.232;2023-04-23T04:15:52;97479.0;;;-8.77;100.0
63954;BME280;50128;52.094;5.232;2023-04-23T04:19:06;97471.0;;;-8.96;100.0
63954;BME280;50128;52.094;5.232;2023-04-23T04:20:42;97484.0;;;-8.82;100.0
63954;BME280;50128;52.094;5.232;2023-04-23T04:22:19;97477.0;;;-8.84;100.0
63954;BME280;50128;52.094;5.232;2023-04-23T04:25:32;97474.0;;;-9.06;100.0
63954;BME280;50128;52.094;5.232;2023-04-23T04:27:08;97469.0;;;-8.99;100.0
63954;BME280;50128;52.094;5.232;2023-04-23T04:28:44;97467.0;;;-9.2;100.0
63954;BME280;50128;52.094;5.232;2023-04-23T04:31:57;97473.0;;;-9.08;100.0
63954;BME280;50128;52.094;5.232;2023-04-23T04:33:33;97461.0;;;-9.15;100.0
63954;BME280;50128;52.094;5.232;2023-04-23T04:35:09;97483.0;;;-9.17;100.0
63954;BME280;50128;52.094;5.232;2023-04-23T04:36:46;97464.0;;;-9.21;100.0
63954;BME280;50128;52.094;5.232;2023-04-23T04:39:58;97480.0;;;-9.15;100.0
63954;BME280;50128;52.094;5.232;2023-04-23T04:41:35;97481.0;;;-9.2;100.0
63954;BME280;50128;52.094;5.232;2023-04-23T04:43:11;97481.0;;;-9.04;100.0
63954;BME280;50128;52.094;5.232;2023-04-23T04:46:24;97484.0;;;-9.16;100.0
63954;BME280;50128;52.094;5.232;2023-04-23T04:48:00;97499.0;;;-9.1;100.0
63954;BME280;50128;52.094;5.232;2023-04-23T04:49:37;97487.0;;;-9.12;100.0
63954;BME280;50128;52.094;5.232;2023-04-23T04:52:50;97486.0;;;-8.99;100.0
63954;BME280;50128;52.094;5.232;2023-04-23T04:54:26;97501.0;;;-8.99;100.0
63954;BME280;50128;52.094;5.232;2023-04-23T04:56:03;97480.0;;;-9.04;100.0
63954;BME280;50128;52.094;5.232;2023-04-23T04:57:40;97490.0;;;-9.11;100.0
63954;BME280;50128;52.094;5.232;2023-04-23T05:00:53;97486.0;;;-9.13;100.0
63954;BME280;50128;52.094;5.232;2023-04-23T05:02:30;97478.0;;;-9.23;100.0
63954;BME280;50128;52.094;5.232;2023-04-23T05:04:06;97474.0;;;-9.13;100.0
63954;BME280;50128;52.094;5.232;2023-04-23T05:07:19;97480.0;;;-9.2;100.0
63954;BME280;50128;52.094;5.232;2023-04-23T05:08:56;97481.0;;;-9.11;100.0
63954;BME280;50128;52.094;5.232;2023-04-23T05:10:32;97481.0;;;-9.25;100.0
63954;BME280;50128;52.094;5.232;2023-04-23T05:13:44;97476.0;;;-9.18;100.0
63954;BME280;50128;52.094;5.232;2023-04-23T05:15:21;97482.0;;;-9.23;100.0
63954;BME280;50128;52.094;5.232;2023-04-23T05:16:57;97476.0;;;-9.27;100.0
63954;BME280;50128;52.094;5.232;2023-04-23T05:18:34;97461.0;;;-9.42;100.0
63954;BME280;50128;52.094;5.232;2023-04-23T05:21:47;97477.0;;;-9.15;100.0
63954;BME280;50128;52.094;5.232;2023-04-23T05:23:23;97470.0;;;-9.27;100.0
63954;BME280;50128;52.094;5.232;2023-04-23T05:24:59;97465.0;;;-9.32;100.0
63954;BME280;50128;52.094;5.232;2023-04-23T05:28:12;97478.0;;;-9.19;100.0
63954;BME280;50128;52.094;5.232;2023-04-23T05:29:48;97477.0;;;-9.09;100.0
63954;BME280;50128;52.094;5.232;2023-04-23T05:31:25;97478.0;;;-9.2;100.0
63954;BME280;50128;52.094;5.232;2023-04-23T05:34:38;97489.0;;;-9.01;100.0
63954;BME280;50128;52.094;5.232;2023-04-23T05:36:14;97487.0;;;-8.98;100.0
63954;BME280;50128;52.094;5.232;2023-04-23T05:37:50;97499.0;;;-8.75;100.0
63954;BME280;50128;52.094;5.232;2023-04-23T05:39:27;97496.0;;;-8.63;100.0
63954;BME280;50128;52.094;5.232;2023-04-23T05:42:39;97490.0;;;-8.61;100.0
63954;BME280;50128;52.094;5.232;2023-04-23T05:44:15;97482.0;;;-8.47;100.0
63954;BME280;50128;52.094;5.232;2023-04-23T05:45:51;97485.0;;;-8.4;100.0
63954;BME280;50128;52.094;5.232;2023-04-23T05:49:04;97491.0;;;-8.18;100.0
63954;BME280;50128;52.094;5.232;2023-04-23T05:50:41;97480.0;;;-8.21;100.0
63954;BME280;50128;52.094;5.232;2023-04-23T05:52:17;97476.0;;;-8.09;100.0
63954;BME280;50128;52.094;5.232;2023-04-23T05:55:30;97484.0;;;-8.1;100.0
63954;BME280;50128;52.094;5.232;2023-04-23T05:57:06;97482.0;;;-7.89;100.0
63954;BME280;50128;52.094;5.232;2023-04-23T05:58:42;97469.0;;;-7.83;100.0
63954;BME280;50128;52.094;5.232;2023-04-23T06:00:18;97468.0;;;-7.92;100.0
63954;BME280;50128;52.094;5.232;2023-04-23T06:03:31;97493.0;;;-7.59;100.0
63954;BME280;50128;52.094;5.232;2023-04-23T06:05:08;97469.0;;;-7.62;100.0
63954;BME280;50128;52.094;5.232;2023-04-23T06:06:44;97467.0;;;-7.41;100.0
63954;BME280;50128;52.094;5.232;2023-04-23T06:09:56;97465.0;;;-7.31;100.0
63954;BME280;50128;52.094;5.232;2023-04-23T06:11:32;97478.0;;;-7.04;100.0
63954;BME280;50128;52.094;5.232;2023-04-23T06:13:08;97468.0;;;-7.06;100.0
63954;BME280;50128;52.094;5.232;2023-04-23T06:16:22;97465.0;;;-6.78;100.0
63954;BME280;50128;52.094;5.232;2023-04-23T06:17:59;97470.0;;;-6.69;100.0
63954;BME280;50128;52.094;5.232;2023-04-23T06:19:35;97474.0;;;-6.65;100.0
63954;BME280;50128;52.094;5.232;2023-04-23T06:22:48;97489.0;;;-6.49;100.0
63954;BME280;50128;52.094;5.232;2023-04-23T06:24:24;97476.0;;;-6.37;100.0
63954;BME280;50128;52.094;5.232;2023-04-23T06:26:01;97478.0;;;-6.22;100.0
63954;BME280;50128;52.094;5.232;2023-04-23T06:27:38;97481.0;;;-6.06;100.0
63954;BME280;50128;52.094;5.232;2023-04-23T06:30:51;97492.0;;;-5.62;100.0
63954;BME280;50128;52.094;5.232;2023-04-23T06:32:27;97477.0;;;-5.8;100.0
63954;BME280;50128;52.094;5.232;2023-04-23T06:34:03;97458.0;;;-6.05;100.0
63954;BME280;50128;52.094;5.232;2023-04-23T06:37:16;97455.0;;;-5.84;100.0
63954;BME280;50128;52.094;5.232;2023-04-23T06:38:52;97464.0;;;-5.62;100.0
63954;BME280;50128;52.094;5.232;2023-04-23T06:40:28;97449.0;;;-5.44;100.0
63954;BME280;50128;52.094;5.232;2023-04-23T06:43:41;97460.0;;;-4.85;99.09
63954;BME280;50128;52.094;5.232;2023-04-23T06:45:18;97460.0;;;-4.99;100.0
63954;BME280;50128;52.094;5.232;2023-04-23T06:46:54;97451.0;;;-4.81;99.6
63954;BME280;50128;52.094;5.232;2023-04-23T06:48:30;97446.0;;;-4.23;96.28
63954;BME280;50128;52.094;5.232;2023-04-23T06:51:45;97459.0;;;-4.34;96.91
63954;BME280;50128;52.094;5.232;2023-04-23T06:53:21;97452.0;;;-4.07;96.73
63954;BME280;50128;52.094;5.232;2023-04-23T06:54:57;97455.0;;;-3.87;94.76
63954;BME280;50128;52.094;5.232;2023-04-23T06:58:09;97453.0;;;-3.45;90.53
63954;BME280;50128;52.094;5.232;2023-04-23T06:59:46;97457.0;;;-3.41;92.57
63954;BME280;50128;52.094;5.232;2023-04-23T07:01:23;97459.0;;;-3.41;92.01
63954;BME280;50128;52.094;5.232;2023-04-23T07:04:35;97458.0;;;-3.16;90.34
63954;BME280;50128;52.094;5.232;2023-04-23T07:06:12;97456.0;;;-3.14;88.25
63954;BME280;50128;52.094;5.232;2023-04-23T07:07:48;97455.0;;;-3.41;90.79
63954;BME280;50128;52.094;5.232;2023-04-23T07:09:25;97458.0;;;-3.13;88.82
63954;BME280;50128;52.094;5.232;2023-04-23T07:12:38;97471.0;;;-3.09;90.05
63954;BME280;50128;52.094;5.232;2023-04-23T07:14:15;97444.0;;;-3.09;88.94
63954;BME280;50128;52.094;5.232;2023-04-23T07:15:51;97452.0;;;-2.78;89.08
63954;BME280;50128;52.094;5.232;2023-04-23T07:19:03;97446.0;;;-2.54;85.42
63954;BME280;50128;52.094;5.232;2023-04-23T07:20:39;97456.0;;;-2.18;85.01
63954;BME280;50128;52.094;5.232;2023-04-23T07:22:16;97456.0;;;-2.39;85.64
63954;BME280;50128;52.094;5.232;2023-04-23T07:25:31;97455.0;;;-2.18;87.73
63954;BME280;50128;52.094;5.232;2023-04-23T07:27:07;97452.0;;;-2.48;87.95
63954;BME280;50128;52.094;5.232;2023-04-23T07:28:45;97449.0;;;-2.13;84.36
63954;BME280;50128;52.094;5.232;2023-04-23T07:30:23;97450.0;;;-1.99;84.69
63954;BME280;50128;52.094;5.232;2023-04-23T07:33:36;97453.0;;;-1.76;81.66
63954;BME280;50128;52.094;5.232;2023-04-23T07:35:13;97456.0;;;-1.66;82.21
63954;BME280;50128;52.094;5.232;2023-04-23T07:36:50;97448.0;;;-1.6;81.55
63954;BME280;50128;52.094;5.232;2023-04-23T07:40:02;97439.0;;;-1.57;79.73
63954;BME280;50128;52.094;5.232;2023-04-23T07:41:41;97447.0;;;-1.52;80.22
63954;BME280;50128;52.094;5.232;2023-04-23T07:43:17;97437.0;;;-1.75;80.0
63954;BME280;50128;52.094;5.232;2023-04-23T07:46:29;97439.0;;;-1.67;84.39
63954;BME280;50128;52.094;5.232;2023-04-23T07:48:05;97436.0;;;-1.69;83.36
63954;BME280;50128;52.094;5.232;2023-04-23T07:49:43;97437.0;;;-1.21;80.58
63954;BME280;50128;52.094;5.232;2023-04-23T07:51:20;97435.0;;;-1.21;78.83
63954;BME280;50128;52.094;5.232;2023-04-23T07:54:33;97447.0;;;-1.27;78.75
63954;BME280;50128;52.094;5.232;2023-04-23T07:56:09;97433.0;;;-1.2;76.83
63954;BME280;50128;52.094;5.232;2023-04-23T07:57:46;97442.0;;;-1.17;79.81
63954;BME280;50128;52.094;5.232;2023-04-23T08:01:00;97433.0;;;-1.21;80.05
63954;BME280;50128;52.094;5.232;2023-04-23T08:02:37;97442.0;;;-1.33;80.58
63954;BME280;50128;52.094;5.232;2023-04-23T08:04:14;97441.0;;;-1.06;79.62
63954;BME280;50128;52.094;5.232;2023-04-23T08:05:50;97414.0;;;-1.03;79.44
63954;BME280;50128;52.094;5.232;2023-04-23T08:09:03;97437.0;;;-0.59;76.09
63954;BME280;50128;52.094;5.232;2023-04-23T08:10:39;97420.0;;;-0.9;79.73
63954;BME280;50128;52.094;5.232;2023-04-23T08:12:17;97414.0;;;-0.77;75.11
63954;BME280;50128;52.094;5.232;2023-04-23T08:15:30;97426.0;;;-0.87;75.55
63954;BME280;50128;52.094;5.232;2023-04-23T08:17:07;97428.0;;;-0.75;76.22
63954;BME280;50128;52.094;5.232;2023-04-23T08:18:44;97429.0;;;-0.73;76.86
63954;BME280;50128;52.094;5.232;2023-04-23T08:21:56;97423.0;;;-0.41;74.58
63954;BME280;50128;52.094;5.232;2023-04-23T08:23:32;97425.0;;;-0.31;72.7
63954;BME280;50128;52.094;5.232;2023-04-23T08:25:09;97450.0;;;0.04;73.27
63954;BME280;50128;52.094;5.232;2023-04-23T08:26:46;97428.0;;;-0.08;74.37
63954;BME280;50128;52.094;5.232;2023-04-23T08:29:59;97410.0;;;-0.32;73.8
63954;BME280;50128;52.094;5.232;2023-04-23T08:31:36;97431.0;;;0.22;71.91
63954;BME280;50128;52.094;5.232;2023-04-23T08:33:12;97425.0;;;0.04;71.14
63954;BME280;50128;52.094;5.232;2023-04-23T08:36:25;97429.0;;;0.04;70.17
63954;BME280;50128;52.094;5.232;2023-04-23T08:38:01;97430.0;;;0.15;71.88
63954;BME280;50128;52.094;5.232;2023-04-23T08:39:38;97426.0;;;0.09;71.73
63954;BME280;50128;52.094;5.232;2023-04-23T08:43:01;97414.0;;;0.2;72.83
63954;BME280;50128;52.094;5.232;2023-04-23T08:44:40;97429.0;;;0.49;72.44
63954;BME280;50128;52.094;5.232;2023-04-23T08:46:18;97425.0;;;0.25;69.87
63954;BME280;50128;52.094;5.232;2023-04-23T08:47:57;97420.0;;;0.05;70.33
63954;BME280;50128;52.094;5.232;2023-04-23T08:51:17;97418.0;;;0.19;73.02
63954;BME280;50128;52.094;5.232;2023-04-23T08:52:56;97427.0;;;0.46;70.94
63954;BME280;50128;52.094;5.232;2023-04-23T08:54:33;97417.0;;;0.32;70.2
63954;BME280;50128;52.094;5.232;2023-04-23T08:56:12;97407.0;;;0.23;71.42
63954;BME280;50128;52.094;5.232;2023-04-23T08:59:29;97418.0;;;0.34;70.81
63954;BME280;50128;52.094;5.232;2023-04-23T09:01:06;97438.0;;;0.37;70.36
63954;BME280;50128;52.094;5.232;2023-04-23T09:02:44;97420.0;;;0.38;71.86
63954;BME280;50128;52.094;5.232;2023-04-23T09:05:57;97421.0;;;0.34;70.02
63954;BME280;50128;52.094;5.232;2023-04-23T09:07:35;97428.0;;;0.44;72.87
63954;BME280;50128;52.094;5.232;2023-04-23T09:09:14;97421.0;;;0.49;69.83
63954;BME280;50128;52.094;5.232;2023-04-23T09:10:53;97427.0;;;0.43;70.08
63954;BME280;50128;52.094;5.232;2023-04-23T09:14:11;97421.0;;;0.29;70.87
63954;BME280;50128;52.094;5.232;2023-04-23T09:15:48;97420.0;;;0.25;71.36
63954;BME280;50128;52.094;5.232;2023-04-23T09:17:27;97413.0;;;0.09;69.48
63954;BME280;50128;52.094;5.232;2023-04-23T09:19:04;97404.0;;;-0.02;69.55
63954;BME280;50128;52.094;5.232;2023-04-23T09:22:37;97429.0;;;0.02;69.41
63954;BME280;50128;52.094;5.232;2023-04-23T09:24:27;97415.0;;;-0.18;69.36
63954;BME280;50128;52.094;5.232;2023-04-23T09:26:05;97419.0;;;-0.02;71.55
63954;BME280;50128;52.094;5.232;2023-04-23T09:27:42;97420.0;;;-0.03;69.77
63954;BME280;50128;52.094;5.232;2023-04-23T09:30:58;97403.0;;;-0.3;70.0
63954;BME280;50128;52.094;5.232;2023-04-23T09:32:35;97404.0;;;-0.16;69.66
63954;BME280;50128;52.094;5.232;2023-04-23T09:34:14;97406.0;;;0.09;69.19
63954;BME280;50128;52.094;5.232;2023-04-23T09:35:50;97397.0;;;-0.19;68.47
63954;BME280;50128;52.094;5.232;2023-04-23T09:39:10;97394.0;;;-0.06;69.2
63954;BME280;50128;52.094;5.232;2023-04-23T09:40:49;97389.0;;;-0.38;68.86
63954;BME280;50128;52.094;5.232;2023-04-23T09:42:26;97393.0;;;0.02;68.41
63954;BME280;50128;52.094;5.232;2023-04-23T09:45:46;97402.0;;;0.04;68.63
63954;BME280;50128;52.094;5.232;2023-04-23T09:47:23;97400.0;;;0.17;68.86
63954;BME280;50128;52.094;5.232;2023-04-23T09:49:00;97404.0;;;0.29;67.24
63954;BME280;50128;52.094;5.232;2023-04-23T09:50:39;97405.0;;;0.43;69.39
63954;BME280;50128;52.094;5.232;2023-04-23T09:53:53;97414.0;;;0.36;66.48
63954;BME280;50128;52.094;5.232;2023-04-23T09:55:31;97408.0;;;0.42;64.61
63954;BME280;50128;52.094;5.232;2023-04-23T09:57:07;97396.0;;;0.3;65.72
63954;BME280;50128;52.094;5.232;2023-04-23T10:00:21;97402.0;;;0.01;64.38
63954;BME280;50128;52.094;5.232;2023-04-23T10:02:01;97409.0;;;0.02;65.66
63954;BME280;50128;52.094;5.232;2023-04-23T10:03:41;97395.0;;;0.06;64.89
63954;BME280;50128;52.094;5.232;2023-04-23T10:05:19;97402.0;;;-0.08;64.39
63954;BME280;50128;52.094;5.232;2023-04-23T10:08:33;97396.0;;;0.05;65.17
63954;BME280;50128;52.094;5.232;2023-04-23T10:10:10;97399.0;;;-0.08;68.05
63954;BME280;50128;52.094;5.232;2023-04-23T10:11:48;97393.0;;;-0.08;65.48
63954;BME280;50128;52.094;5.232;2023-04-23T10:13:27;97396.0;;;0.24;65.63
63954;BME280;50128;52.094;5.232;2023-04-23T10:16:41;97398.0;;;0.24;60.96
63954;BME280;50128;52.094;5.232;2023-04-23T10:18:19;97397.0;;;0.4;61.8
63954;BME280;50128;52.094;5.232;2023-04-23T10:19:57;97402.0;;;0.54;64.02
63954;BME280;50128;52.094;5.232;2023-04-23T10:23:14;97387.0;;;0.61;62.16
63954;BME280;50128;52.094;5.232;2023-04-23T10:24:56;97402.0;;;0.76;60.02
63954;BME280;50128;52.094;5.232;2023-04-23T10:26:35;97385.0;;;0.71;60.32
63954;BME280;50128;52.094;5.232;2023-04-23T10:28:14;97388.0;;;0.87;60.09
63954;BME280;50128;52.094;5.232;2023-04-23T10:31:32;97366.0;;;0.63;59.0
63954;BME280;50128;52.094;5.232;2023-04-23T10:33:11;97382.0;;;0.63;58.92
63954;BME280;50128;52.094;5.232;2023-04-23T10:34:47;97401.0;;;0.35;59.17
63954;BME280;50128;52.094;5.232;2023-04-23T10:38:02;97375.0;;;0.51;60.89
63954;BME280;50128;52.094;5.232;2023-04-23T10:39:42;97364.0;;;0.53;59.94
63954;BME280;50128;52.094;5.232;2023-04-23T10:41:22;97366.0;;;0.59;60.64
63954;BME280;50128;52.094;5.232;2023-04-23T10:43:02;97370.0;;;0.7;58.16
63954;BME280;50128;52.094;5.232;2023-04-23T10:46:33;97367.0;;;0.67;59.77
63954;BME280;50128;52.094;5.232;2023-04-23T10:48:10;97356.0;;;0.68;60.63
63954;BME280;50128;52.094;5.232;2023-04-23T10:49:47;97356.0;;;0.86;58.89
63954;BME280;50128;52.094;5.232;2023-04-23T10:51:32;97345.0;;;0.88;59.87
63954;BME280;50128;52.094;5.232;2023-04-23T10:54:56;97366.0;;;0.7;55.95
63954;BME280;50128;52.094;5.232;2023-04-23T10:56:33;97336.0;;;0.61;56.53
63954;BME280;50128;52.094;5.232;2023-04-23T10:58:09;97344.0;;;0.65;55.49
63954;BME280;50128;52.094;5.232;2023-04-23T10:59:51;97336.0;;;0.59;55.62
63954;BME280;50128;52.094;5.232;2023-04-23T11:03:03;97341.0;;;0.35;53.5
63954;BME280;50128;52.094;5.232;2023-04-23T11:04:42;97342.0;;;0.77;53.71
63954;BME280;50128;52.094;5.232;2023-04-23T11:06:49;97335.0;;;0.71;53.68
63954;BME280;50128;52.094;5.232;2023-04-23T11:08:28;97334.0;;;0.86;53.33
63954;BME280;50128;52.094;5.232;2023-04-23T11:10:10;97346.0;;;1.18;54.07
63954;BME280;50128;52.094;5.232;2023-04-23T11:13:25;97338.0;;;1.1;53.38
63954;BME280;50128;52.094;5.232;2023-04-23T11:15:10;97318.0;;;0.91;53.99
63954;BME280;50128;52.094;5.232;2023-04-23T11:16:48;97351.0;;;1.11;53.34
63954;BME280;50128;52.094;5.232;2023-04-23T11:18:23;97344.0;;;0.99;54.23
63954;BME280;50128;52.094;5.232;2023-04-23T11:22:03;97340.0;;;0.91;53.35
63954;BME280;50128;52.094;5.232;2023-04-23T11:23:44;97339.0;;;1.08;55.35
63954;BME280;50128;52.094;5.232;2023-04-23T11:25:22;97317.0;;;0.81;53.26
63954;BME280;50128;52.094;5.232;2023-04-23T11:26:59;97327.0;;;0.66;52.69
63954;BME280;50128;52.094;5.232;2023-04-23T11:30:19;97305.0;;;0.56;52.92
63954;BME280;50128;52.094;5.232;2023-04-23T11:31:57;97313.0;;;0.6;50.9
63954;BME280;50128;52.094;5.232;2023-04-23T11:33:35;97323.0;;;0.73;52.71
63954;BME280;50128;52.094;5.232;2023-04-23T11:35:12;97320.0;;;0.81;52.71
63954;BME280;50128;52.094;5.232;2023-04-23T11:38:30;97313.0;;;0.79;52.99
63954;BME280;50128;52.094;5.232;2023-04-23T11:40:08;97306.0;;;1.07;53.08
63954;BME280;50128;52.094;5.232;2023-04-23T11:41:46;97281.0;;;0.98;54.24
63954;BME280;50128;52.094;5.232;2023-04-23T11:44:58;97279.0;;;1.12;52.91
63954;BME280;50128;52.094;5.232;2023-04-23T11:46:35;97273.0;;;1.01;53.49
63954;BME280;50128;52.094;5.232;2023-04-23T11:48:11;97269.0;;;1.13;54.32